Time,TemperatureF,DewpointF,PressureIn,WindDirection,WindDirectionDegrees,WindSpeedMPH,WindSpeedGustMPH,Humidity,HourlyPrecipIn,Conditions,Clouds,dailyrainin,SoftwareType,DateUTC
2013-04-20 00:06:00,61.1,59.0,29.69,West,260,5.0,13.0,91,0.08,,,0.03,weatherlink.com 1.10,2013-04-20 04:06:00,
2013-04-20 00:21:00,55.8,50.0,29.73,WSW,249,8.0,12.0,80,0.08,,,0.04,weatherlink.com 1.10,2013-04-20 04:21:00,
2013-04-20 00:36:00,53.3,46.0,29.73,South,191,2.0,14.0,77,0.07,,,0.04,weatherlink.com 1.10,2013-04-20 04:36:00,
2013-04-20 00:51:00,52.4,47.0,29.72,SW,219,1.0,6.0,81,0.05,,,0.04,weatherlink.com 1.10,2013-04-20 04:51:00,
2013-04-20 01:06:00,51.8,47.0,29.73,SSE,166,0.0,4.0,82,0.02,,,0.05,weatherlink.com 1.10,2013-04-20 05:06:00,
2013-04-20 01:21:00,51.7,47.0,29.73,SSW,194,1.0,3.0,83,0.02,,,0.06,weatherlink.com 1.10,2013-04-20 05:21:00,
2013-04-20 01:36:00,51.1,47.0,29.72,South,188,1.0,1.0,86,0.03,,,0.07,weatherlink.com 1.10,2013-04-20 05:36:00,
2013-04-20 01:51:00,50.8,48.0,29.75,SE,146,0.0,2.0,89,0.03,,,0.07,weatherlink.com 1.10,2013-04-20 05:51:00,
2013-04-20 02:06:00,50.8,48.0,29.72,NW,312,0.0,1.0,91,0.02,,,0.07,weatherlink.com 1.10,2013-04-20 06:06:00,
2013-04-20 02:21:00,50.5,48.0,29.72,NNE,16,1.0,1.0,92,0.02,,,0.08,weatherlink.com 1.10,2013-04-20 06:21:00,
2013-04-20 02:36:00,50.4,49.0,29.72,SSW,211,0.0,2.0,93,0.02,,,0.09,weatherlink.com 1.10,2013-04-20 06:36:00,
2013-04-20 02:51:00,50.3,49.0,29.73,SSW,200,0.0,1.0,94,0.04,,,0.11,weatherlink.com 1.10,2013-04-20 06:51:00,
2013-04-20 03:06:00,50.1,49.0,29.76,SSE,150,1.0,5.0,94,0.06,,,0.13,weatherlink.com 1.10,2013-04-20 07:06:00,
2013-04-20 03:21:00,50.1,48.0,29.74,SW,224,0.0,3.0,93,0.07,,,0.15,weatherlink.com 1.10,2013-04-20 07:21:00,
2013-04-20 03:36:00,49.8,48.0,29.73,West,259,2.0,6.0,93,0.07,,,0.17,weatherlink.com 1.10,2013-04-20 07:36:00,
2013-04-20 03:51:00,49.7,48.0,29.75,SSE,155,1.0,4.0,93,0.05,,,0.17,weatherlink.com 1.10,2013-04-20 07:51:00,
2013-04-20 04:07:00,49.5,47.0,29.75,SW,217,0.0,5.0,92,0.05,,,0.18,weatherlink.com 1.10,2013-04-20 08:07:00,
2013-04-20 04:22:00,49.4,47.0,29.75,ENE,76,1.0,2.0,92,0.02,,,0.18,weatherlink.com 1.10,2013-04-20 08:22:00,
2013-04-20 04:37:00,49.3,47.0,29.77,SSW,200,0.0,4.0,92,0.01,,,0.18,weatherlink.com 1.10,2013-04-20 08:37:00,
2013-04-20 04:52:00,49.3,47.0,29.77,SW,226,3.0,5.0,91,0.01,,,0.18,weatherlink.com 1.10,2013-04-20 08:52:00,
2013-04-20 05:07:00,49.5,46.0,29.78,WSW,253,0.0,10.0,89,0.00,,,0.18,weatherlink.com 1.10,2013-04-20 09:07:00,
2013-04-20 05:22:00,49.4,46.0,29.81,West,273,1.0,6.0,89,0.00,,,0.18,weatherlink.com 1.10,2013-04-20 09:22:00,
2013-04-20 05:37:00,49.3,46.0,29.82,West,274,2.0,5.0,89,0.00,,,0.18,weatherlink.com 1.10,2013-04-20 09:37:00,
2013-04-20 05:52:00,48.9,44.0,29.84,NE,36,1.0,17.0,83,0.00,,,0.18,weatherlink.com 1.10,2013-04-20 09:52:00,
2013-04-20 06:07:00,48.2,44.0,29.84,WSW,239,3.0,11.0,85,0.00,,,0.18,weatherlink.com 1.10,2013-04-20 10:07:00,
2013-04-20 06:22:00,47.9,44.0,29.85,WNW,288,2.0,6.0,86,0.00,,,0.18,weatherlink.com 1.10,2013-04-20 10:22:00,
2013-04-20 06:37:00,47.8,44.0,29.87,SSW,208,1.0,6.0,86,0.00,,,0.18,weatherlink.com 1.10,2013-04-20 10:37:00,
2013-04-20 06:52:00,47.9,44.0,29.87,West,273,0.0,3.0,86,0.00,,,0.18,weatherlink.com 1.10,2013-04-20 10:52:00,
2013-04-20 07:07:00,47.9,44.0,29.88,West,266,0.0,4.0,86,0.00,,,0.18,weatherlink.com 1.10,2013-04-20 11:07:00,
2013-04-20 07:22:00,48.1,44.0,29.88,SSE,150,2.0,5.0,84,0.00,,,0.18,weatherlink.com 1.10,2013-04-20 11:22:00,
2013-04-20 07:37:00,48.3,43.0,29.89,SSW,212,2.0,6.0,83,0.00,,,0.18,weatherlink.com 1.10,2013-04-20 11:37:00,
2013-04-20 07:52:00,48.6,43.0,29.89,South,180,1.0,5.0,81,0.00,,,0.18,weatherlink.com 1.10,2013-04-20 11:52:00,
2013-04-20 08:07:00,48.8,42.0,29.89,South,184,0.0,7.0,78,0.00,,,0.18,weatherlink.com 1.10,2013-04-20 12:07:00,
2013-04-20 08:22:00,49.1,43.0,29.90,SSW,207,0.0,6.0,78,0.00,,,0.18,weatherlink.com 1.10,2013-04-20 12:22:00,
2013-04-20 08:37:00,50.1,42.0,29.89,South,176,6.0,10.0,73,0.00,,,0.18,weatherlink.com 1.10,2013-04-20 12:37:00,
2013-04-20 08:52:00,50.6,41.0,29.90,NNE,13,2.0,14.0,69,0.00,,,0.18,weatherlink.com 1.10,2013-04-20 12:52:00,
2013-04-20 09:07:00,50.5,38.0,29.90,SW,220,5.0,11.0,63,0.00,,,0.18,weatherlink.com 1.10,2013-04-20 13:07:00,
2013-04-20 09:22:00,50.4,37.0,29.91,South,186,6.0,14.0,60,0.00,,,0.18,weatherlink.com 1.10,2013-04-20 13:22:00,
2013-04-20 09:37:00,50.2,35.0,29.92,ENE,72,4.0,14.0,56,0.00,,,0.18,weatherlink.com 1.10,2013-04-20 13:37:00,
2013-04-20 09:52:00,50.2,34.0,29.93,South,181,5.0,13.0,54,0.00,,,0.18,weatherlink.com 1.10,2013-04-20 13:52:00,
2013-04-20 10:07:00,50.1,31.0,29.94,SSW,212,8.0,17.0,49,0.00,,,0.18,weatherlink.com 1.10,2013-04-20 14:07:00,
2013-04-20 10:22:00,50.4,32.0,29.95,SSE,163,2.0,13.0,50,0.00,,,0.18,weatherlink.com 1.10,2013-04-20 14:22:00,
2013-04-20 10:37:00,50.7,32.0,29.96,SW,224,1.0,11.0,50,0.00,,,0.18,weatherlink.com 1.10,2013-04-20 14:37:00,
2013-04-20 10:52:00,50.8,31.0,29.97,SSW,201,4.0,14.0,47,0.00,,,0.18,weatherlink.com 1.10,2013-04-20 14:52:00,
2013-04-20 11:08:00,50.8,31.0,29.99,SE,138,8.0,14.0,46,0.00,,,0.18,weatherlink.com 1.10,2013-04-20 15:08:00,
2013-04-20 11:23:00,50.1,28.0,30.00,SSE,162,2.0,16.0,43,0.00,,,0.18,weatherlink.com 1.10,2013-04-20 15:23:00,
2013-04-20 11:38:00,50.2,28.0,29.99,East,99,5.0,18.0,42,0.00,,,0.18,weatherlink.com 1.10,2013-04-20 15:38:00,
2013-04-20 11:53:00,50.2,28.0,29.99,West,263,3.0,12.0,43,0.00,,,0.18,weatherlink.com 1.10,2013-04-20 15:53:00,
2013-04-20 12:08:00,50.9,30.0,29.99,NW,325,1.0,12.0,45,0.00,,,0.18,weatherlink.com 1.10,2013-04-20 16:08:00,
2013-04-20 12:23:00,51.0,30.0,29.99,West,269,2.0,14.0,45,0.00,,,0.18,weatherlink.com 1.10,2013-04-20 16:23:00,
2013-04-20 12:38:00,52.3,31.0,29.99,South,179,4.0,12.0,45,0.00,,,0.18,weatherlink.com 1.10,2013-04-20 16:38:00,
2013-04-20 12:53:00,52.0,29.0,29.98,West,270,3.0,15.0,42,0.00,,,0.18,weatherlink.com 1.10,2013-04-20 16:53:00,
2013-04-20 13:08:00,53.7,32.0,29.98,WNW,297,3.0,11.0,44,0.00,,,0.18,weatherlink.com 1.10,2013-04-20 17:08:00,
2013-04-20 13:23:00,55.0,31.0,29.97,SE,127,4.0,13.0,40,0.00,,,0.18,weatherlink.com 1.10,2013-04-20 17:23:00,
2013-04-20 13:38:00,56.2,31.0,29.97,WSW,243,4.0,16.0,38,0.00,,,0.18,weatherlink.com 1.10,2013-04-20 17:38:00,
2013-04-20 13:53:00,55.5,30.0,29.98,WSW,238,4.0,12.0,38,0.00,,,0.18,weatherlink.com 1.10,2013-04-20 17:53:00,
2013-04-20 14:08:00,56.7,31.0,29.98,SSW,213,11.0,16.0,38,0.00,,,0.18,weatherlink.com 1.10,2013-04-20 18:08:00,
2013-04-20 14:23:00,57.6,31.0,29.98,SW,232,8.0,13.0,37,0.00,,,0.18,weatherlink.com 1.10,2013-04-20 18:23:00,
2013-04-20 14:38:00,57.0,29.0,29.98,SSW,194,9.0,17.0,35,0.00,,,0.18,weatherlink.com 1.10,2013-04-20 18:38:00,
2013-04-20 14:53:00,57.2,30.0,29.99,SW,218,5.0,15.0,35,0.00,,,0.18,weatherlink.com 1.10,2013-04-20 18:53:00,
2013-04-20 15:08:00,57.6,30.0,29.98,SSE,147,3.0,9.0,35,0.00,,,0.18,weatherlink.com 1.10,2013-04-20 19:08:00,
2013-04-20 15:23:00,56.7,29.0,29.99,SSW,208,5.0,13.0,35,0.00,,,0.18,weatherlink.com 1.10,2013-04-20 19:23:00,
2013-04-20 15:38:00,57.6,30.0,29.99,SE,132,1.0,12.0,35,0.00,,,0.18,weatherlink.com 1.10,2013-04-20 19:38:00,
2013-04-20 15:53:00,57.5,28.0,29.99,SSW,200,4.0,9.0,32,0.00,,,0.18,weatherlink.com 1.10,2013-04-20 19:53:00,
2013-04-20 16:08:00,57.6,29.0,30.00,East,85,5.0,15.0,33,0.00,,,0.18,weatherlink.com 1.10,2013-04-20 20:08:00,
2013-04-20 16:23:00,56.9,28.0,30.01,WNW,285,2.0,10.0,33,0.00,,,0.18,weatherlink.com 1.10,2013-04-20 20:23:00,
2013-04-20 16:38:00,57.8,28.0,30.01,West,266,2.0,11.0,32,0.00,,,0.18,weatherlink.com 1.10,2013-04-20 20:38:00,
2013-04-20 16:53:00,58.4,27.0,30.02,WSW,255,7.0,12.0,30,0.00,,,0.18,weatherlink.com 1.10,2013-04-20 20:53:00,
2013-04-20 17:08:00,57.6,26.0,30.03,East,96,3.0,15.0,30,0.00,,,0.18,weatherlink.com 1.10,2013-04-20 21:08:00,
2013-04-20 17:23:00,57.6,27.0,30.04,South,176,4.0,13.0,31,0.00,,,0.18,weatherlink.com 1.10,2013-04-20 21:23:00,
2013-04-20 17:38:00,57.0,26.0,30.04,NW,311,3.0,7.0,31,0.00,,,0.18,weatherlink.com 1.10,2013-04-20 21:38:00,
2013-04-20 17:53:00,56.8,26.0,30.05,South,177,2.0,9.0,31,0.00,,,0.18,weatherlink.com 1.10,2013-04-20 21:53:00,
2013-04-20 18:08:00,56.9,26.0,30.06,West,271,6.0,8.0,31,0.00,,,0.18,weatherlink.com 1.10,2013-04-20 22:08:00,
2013-04-20 18:23:00,55.9,25.0,30.07,WNW,296,3.0,12.0,31,0.00,,,0.18,weatherlink.com 1.10,2013-04-20 22:23:00,
2013-04-20 18:38:00,56.3,26.0,30.08,SW,225,4.0,7.0,31,0.00,,,0.18,weatherlink.com 1.10,2013-04-20 22:38:00,
2013-04-20 18:53:00,56.0,26.0,30.09,WSW,238,2.0,11.0,31,0.00,,,0.18,weatherlink.com 1.10,2013-04-20 22:53:00,
2013-04-20 19:08:00,55.1,25.0,30.10,SSE,160,7.0,15.0,31,0.00,,,0.18,weatherlink.com 1.10,2013-04-20 23:08:00,
2013-04-20 19:23:00,54.1,25.0,30.11,West,267,0.0,10.0,32,0.00,,,0.18,weatherlink.com 1.10,2013-04-20 23:23:00,
2013-04-20 19:38:00,53.6,25.0,30.12,WSW,253,3.0,10.0,33,0.00,,,0.18,weatherlink.com 1.10,2013-04-20 23:38:00,
2013-04-20 19:53:00,53.0,25.0,30.14,South,187,5.0,7.0,34,0.00,,,0.18,weatherlink.com 1.10,2013-04-20 23:53:00,
2013-04-20 20:08:00,52.5,26.0,30.15,WSW,249,2.0,8.0,36,0.00,,,0.18,weatherlink.com 1.10,2013-04-21 00:08:00,
2013-04-20 20:23:00,52.0,26.0,30.16,WSW,252,3.0,8.0,37,0.00,,,0.18,weatherlink.com 1.10,2013-04-21 00:23:00,
2013-04-20 20:38:00,51.7,26.0,30.18,WSW,240,3.0,10.0,37,0.00,,,0.18,weatherlink.com 1.10,2013-04-21 00:38:00,
2013-04-20 20:54:00,51.2,26.0,30.20,NW,312,9.0,13.0,37,0.00,,,0.18,weatherlink.com 1.10,2013-04-21 00:54:00,
2013-04-20 21:09:00,50.7,26.0,30.21,SW,235,3.0,12.0,38,0.00,,,0.18,weatherlink.com 1.10,2013-04-21 01:09:00,
2013-04-20 21:24:00,50.1,26.0,30.23,WSW,245,4.0,13.0,40,0.00,,,0.18,weatherlink.com 1.10,2013-04-21 01:24:00,
2013-04-20 21:39:00,49.1,27.0,30.24,WSW,252,9.0,9.0,43,0.00,,,0.18,weatherlink.com 1.10,2013-04-21 01:39:00,
2013-04-20 21:54:00,48.2,27.0,30.25,West,269,2.0,9.0,44,0.00,,,0.18,weatherlink.com 1.10,2013-04-21 01:54:00,
2013-04-20 22:09:00,47.6,26.0,30.26,SSE,163,2.0,9.0,43,0.00,,,0.18,weatherlink.com 1.10,2013-04-21 02:09:00,
2013-04-20 22:24:00,47.1,26.0,30.27,NNW,335,2.0,10.0,44,0.00,,,0.18,weatherlink.com 1.10,2013-04-21 02:24:00,
2013-04-20 22:39:00,46.6,27.0,30.28,WNW,302,2.0,8.0,46,0.00,,,0.18,weatherlink.com 1.10,2013-04-21 02:39:00,
2013-04-20 22:54:00,46.0,27.0,30.28,West,259,4.0,17.0,47,0.00,,,0.18,weatherlink.com 1.10,2013-04-21 02:54:00,
2013-04-20 23:09:00,45.2,26.0,30.30,SW,232,5.0,9.0,47,0.00,,,0.18,weatherlink.com 1.10,2013-04-21 03:09:00,
2013-04-20 23:24:00,44.6,25.0,30.31,WSW,252,5.0,11.0,47,0.00,,,0.18,weatherlink.com 1.10,2013-04-21 03:24:00,
2013-04-20 23:39:00,43.7,24.0,30.31,West,271,6.0,10.0,47,0.00,,,0.18,weatherlink.com 1.10,2013-04-21 03:39:00,
2013-04-20 23:54:00,42.7,24.0,30.33,East,89,5.0,10.0,47,0.00,,,0.18,weatherlink.com 1.10,2013-04-21 03:54:00,